Time;durP1;ratioP1;P1;durP2;ratioP2;P2;SDS_P1;SDS_P2;PMS_P1;PMS_P2;Temp;Humidity;BMP_temperature;BMP_pressure;BME280_temperature;BME280_humidity;BME280_pressure;Samples;Min_cycle;Max_cycle;Signal;HPM_P1;HPM_P2
2020/12/03 00:01:12;;;;;;;10.20;5.93;;;8.70;79.80;;;;;;5029406;28;20037;-76
2020/12/03 00:03:50;;;;;;;9.50;5.85;;;8.70;79.80;;;;;;4995855;28;20026;-76
2020/12/03 00:06:31;;;;;;;10.48;6.38;;;8.80;79.90;;;;;;5013387;28;20022;-75
2020/12/03 00:09:17;;;;;;;8.85;5.35;;;8.80;79.90;;;;;;5011374;28;20024;-76
2020/12/03 00:11:56;;;;;;;10.55;6.38;;;8.80;79.90;;;;;;5011816;28;20045;-76
2020/12/03 00:14:22;;;;;;;9.75;5.43;;;8.80;79.90;;;;;;5012866;28;20025;-76
2020/12/03 00:16:49;;;;;;;9.30;5.78;;;8.80;79.80;;;;;;5012283;28;20025;-75
2020/12/03 00:19:18;;;;;;;9.82;6.00;;;8.70;79.80;;;;;;5012723;28;20029;-75
2020/12/03 00:21:47;;;;;;;10.05;5.68;;;8.80;79.90;;;;;;5028561;28;20034;-75
2020/12/03 00:24:19;;;;;;;10.13;6.32;;;8.80;79.90;;;;;;5011506;28;20030;-75
2020/12/03 00:26:46;;;;;;;9.88;6.00;;;8.80;79.90;;;;;;5010294;28;20536;-76
2020/12/03 00:29:11;;;;;;;10.23;6.43;;;8.80;79.90;;;;;;5011595;28;20034;-75
2020/12/03 00:31:37;;;;;;;9.85;6.30;;;8.80;79.90;;;;;;5028967;28;20141;-75
2020/12/03 00:34:05;;;;;;;11.13;6.90;;;8.80;79.90;;;;;;5012159;28;20026;-77
2020/12/03 00:36:30;;;;;;;11.20;6.70;;;8.80;79.90;;;;;;5013012;28;20026;-76
2020/12/03 00:38:56;;;;;;;10.13;6.45;;;8.80;79.90;;;;;;5015336;28;20037;-76
2020/12/03 00:41:24;;;;;;;11.07;6.30;;;8.80;79.90;;;;;;5027488;28;20079;-76
2020/12/03 00:43:49;;;;;;;10.10;6.38;;;8.80;79.90;;;;;;4996236;28;20038;-75
2020/12/03 00:46:17;;;;;;;10.63;6.28;;;8.70;79.90;;;;;;4995978;28;20037;-76
2020/12/03 00:48:42;;;;;;;9.90;6.20;;;8.80;79.90;;;;;;5012421;28;20466;-76
2020/12/03 00:51:12;;;;;;;12.82;7.70;;;8.80;79.80;;;;;;4995099;28;20037;-76
2020/12/03 00:53:40;;;;;;;10.95;6.38;;;8.80;79.80;;;;;;4997033;28;20061;-76
2020/12/03 00:56:10;;;;;;;11.00;6.97;;;8.80;79.90;;;;;;5010284;28;20049;-79
2020/12/03 00:58:36;;;;;;;10.50;6.55;;;8.80;79.80;;;;;;5010981;28;20060;-76
2020/12/03 01:01:02;;;;;;;10.35;6.32;;;8.80;79.80;;;;;;5011260;28;20061;-75
2020/12/03 01:03:27;;;;;;;10.82;6.82;;;8.80;79.90;;;;;;5012056;28;20029;-75
2020/12/03 01:05:53;;;;;;;11.60;6.63;;;8.80;79.80;;;;;;4995363;28;20486;-76
2020/12/03 01:08:19;;;;;;;11.13;6.80;;;8.80;79.80;;;;;;4991283;28;20025;-76
2020/12/03 01:10:45;;;;;;;11.38;7.32;;;8.80;79.80;;;;;;4983707;28;20079;-75
2020/12/03 01:13:11;;;;;;;11.30;6.97;;;8.80;79.90;;;;;;4996129;28;20030;-75
2020/12/03 01:15:42;;;;;;;11.00;6.55;;;8.80;79.80;;;;;;5017209;28;20034;-76
2020/12/03 01:18:07;;;;;;;10.38;6.50;;;8.80;79.80;;;;;;5012820;28;20038;-75
2020/12/03 01:20:34;;;;;;;11.18;6.72;;;8.80;79.80;;;;;;4998110;28;20034;-76
2020/12/03 01:23:00;;;;;;;11.35;6.55;;;8.80;79.80;;;;;;5012462;28;20041;-76
2020/12/03 01:25:26;;;;;;;11.27;7.00;;;8.80;79.80;;;;;;5013202;28;20036;-76
2020/12/03 01:27:52;;;;;;;11.52;7.00;;;8.80;79.80;;;;;;5011134;28;20496;-76
2020/12/03 01:30:21;;;;;;;11.48;7.10;;;8.80;79.80;;;;;;5012008;28;20056;-76
2020/12/03 01:32:47;;;;;;;10.70;6.90;;;8.80;79.80;;;;;;5011253;28;20034;-76
2020/12/03 01:35:15;;;;;;;11.48;6.80;;;8.80;79.80;;;;;;5009834;28;20026;-80
2020/12/03 01:37:41;;;;;;;11.13;6.97;;;8.80;79.80;;;;;;5010641;28;20084;-76
2020/12/03 01:40:13;;;;;;;12.23;7.32;;;8.80;79.80;;;;;;5011097;28;20038;-79
2020/12/03 01:42:42;;;;;;;10.75;7.07;;;8.80;79.80;;;;;;5011120;28;20060;-76
2020/12/03 01:46:02;;;;;;;11.55;7.10;;;8.80;79.80;;;;;;5014044;28;20087;-79
2020/12/03 01:48:51;;;;;;;10.57;6.47;;;8.80;79.80;;;;;;4952369;28;20142;-76
2020/12/03 01:51:33;;;;;;;13.35;7.03;;;8.80;79.80;;;;;;5006466;28;20042;-75
2020/12/03 01:54:07;;;;;;;10.60;6.90;;;8.80;79.80;;;;;;5011451;28;20026;-75
2020/12/03 01:57:01;;;;;;;10.98;6.53;;;8.80;79.70;;;;;;5030922;28;20049;-76
2020/12/03 01:59:32;;;;;;;11.48;7.05;;;8.80;79.80;;;;;;5012498;28;20041;-76
2020/12/03 02:01:59;;;;;;;11.18;6.80;;;8.80;79.80;;;;;;5027746;28;20101;-76
2020/12/03 02:04:25;;;;;;;11.43;7.15;;;8.80;79.80;;;;;;5012423;28;20103;-76
2020/12/03 02:07:03;;;;;;;11.57;7.45;;;8.80;79.80;;;;;;5011358;28;20041;-76
2020/12/03 02:09:30;;;;;;;11.43;6.95;;;8.80;79.90;;;;;;5019515;28;20034;-75
2020/12/03 02:11:56;;;;;;;10.48;6.70;;;8.80;79.80;;;;;;5011963;28;20500;-77
2020/12/03 02:14:23;;;;;;;11.98;7.72;;;8.80;79.90;;;;;;5012220;28;20025;-76
2020/12/03 02:16:49;;;;;;;11.85;7.22;;;8.80;79.90;;;;;;4995023;28;20394;-77
2020/12/03 02:19:23;;;;;;;12.30;6.95;;;8.80;80.20;;;;;;5011249;28;20040;-77
2020/12/03 02:21:58;;;;;;;11.48;7.32;;;8.80;79.90;;;;;;5010761;28;20413;-75
2020/12/03 02:24:32;;;;;;;;;;;8.80;79.90;;;;;;5011803;28;20033;-76
2020/12/03 02:26:58;;;;;;;10.98;6.53;;;8.80;79.80;;;;;;5014512;28;19909;-77
2020/12/03 02:29:24;;;;;;;11.60;6.70;;;8.80;79.70;;;;;;5016113;28;20029;-76
2020/12/03 02:31:52;;;;;;;10.68;6.78;;;8.80;79.70;;;;;;5014405;28;20040;-76
2020/12/03 02:34:18;;;;;;;11.52;6.63;;;8.80;79.70;;;;;;5022301;28;20037;-76
2020/12/03 02:36:50;;;;;;;11.60;7.10;;;8.80;79.80;;;;;;5014601;28;20445;-75
2020/12/03 02:39:19;;;;;;;10.50;6.80;;;8.80;79.90;;;;;;5013753;28;20449;-75
2020/12/03 02:41:45;;;;;;;11.13;7.47;;;8.80;79.90;;;;;;5014147;28;20033;-77
2020/12/03 02:44:15;;;;;;;9.85;6.53;;;8.80;79.90;;;;;;5015153;28;20029;-76
2020/12/03 02:46:41;;;;;;;10.85;6.97;;;8.80;79.80;;;;;;5014415;28;20076;-75
2020/12/03 02:49:10;;;;;;;12.10;7.15;;;8.80;79.80;;;;;;5014241;28;20532;-76
2020/12/03 02:51:37;;;;;;;10.60;7.10;;;8.80;79.80;;;;;;4997608;28;20034;-76
2020/12/03 02:54:03;;;;;;;11.10;7.18;;;8.80;79.80;;;;;;5014105;28;20028;-76
2020/12/03 02:56:29;;;;;;;11.50;7.30;;;8.80;80.40;;;;;;4997181;28;20397;-76
2020/12/03 02:58:55;;;;;;;10.60;6.88;;;8.80;79.80;;;;;;5014249;28;20022;-76
2020/12/03 03:01:20;;;;;;;10.45;6.97;;;8.80;79.90;;;;;;4997693;28;20103;-75
2020/12/03 03:03:51;;;;;;;10.40;6.78;;;8.80;79.80;;;;;;5013169;28;20030;-75
2020/12/03 03:06:16;;;;;;;10.98;6.35;;;8.80;79.80;;;;;;5013063;28;20072;-76
2020/12/03 03:08:45;;;;;;;10.20;6.55;;;8.80;79.80;;;;;;5012731;28;20037;-76
2020/12/03 03:11:11;;;;;;;11.82;7.07;;;8.80;79.80;;;;;;4996026;28;20374;-76
2020/12/03 03:13:37;;;;;;;10.85;6.75;;;8.80;79.80;;;;;;4996627;28;20462;-77
2020/12/03 03:16:03;;;;;;;10.55;6.72;;;8.80;79.80;;;;;;4996866;28;20025;-76
2020/12/03 03:18:29;;;;;;;10.40;6.88;;;8.80;79.80;;;;;;4995961;28;20032;-76
2020/12/03 03:20:55;;;;;;;9.23;5.80;;;8.80;79.80;;;;;;5020019;28;20065;-76
2020/12/03 03:23:21;;;;;;;10.95;6.78;;;8.80;79.80;;;;;;5012035;28;20033;-77
2020/12/03 03:25:48;;;;;;;10.52;6.70;;;8.80;79.80;;;;;;5012695;28;20033;-76
2020/12/03 03:28:14;;;;;;;10.38;6.57;;;8.80;79.80;;;;;;5012085;28;20033;-78
2020/12/03 03:30:40;;;;;;;10.68;7.05;;;8.80;79.80;;;;;;4996093;28;20474;-76
2020/12/03 03:33:06;;;;;;;9.73;6.78;;;8.80;79.80;;;;;;4979700;28;20030;-75
2020/12/03 03:35:33;;;;;;;10.60;6.95;;;8.80;79.80;;;;;;5012647;28;20061;-75
2020/12/03 03:37:59;;;;;;;11.20;6.68;;;8.80;79.80;;;;;;5013574;28;20140;-76
2020/12/03 03:40:25;;;;;;;10.40;6.72;;;8.80;79.80;;;;;;5013280;28;20030;-77
2020/12/03 03:42:51;;;;;;;10.32;6.57;;;8.80;80.10;;;;;;5013087;28;20059;-75
2020/12/03 03:45:17;;;;;;;10.70;6.70;;;8.70;79.70;;;;;;5018643;28;20044;-76
2020/12/03 03:47:43;;;;;;;9.98;6.93;;;8.80;79.80;;;;;;4981281;28;20030;-76
2020/12/03 03:50:10;;;;;;;10.43;6.53;;;8.70;79.70;;;;;;5013118;28;20030;-76
2020/12/03 03:52:38;;;;;;;8.95;6.32;;;8.70;79.80;;;;;;5013229;28;20482;-77
2020/12/03 03:55:05;;;;;;;9.50;6.32;;;8.70;79.70;;;;;;4996223;28;20057;-75
2020/12/03 03:57:31;;;;;;;10.43;6.72;;;8.70;79.70;;;;;;5013319;28;20026;-76
2020/12/03 03:59:57;;;;;;;10.43;6.40;;;8.70;79.70;;;;;;5004673;28;20062;-76
2020/12/03 04:02:24;;;;;;;10.18;6.75;;;8.70;79.70;;;;;;5020808;28;20073;-75
2020/12/03 04:04:50;;;;;;;9.77;6.45;;;8.70;79.70;;;;;;5020743;28;20054;-77
2020/12/03 04:07:17;;;;;;;9.82;6.32;;;8.70;79.70;;;;;;5030912;28;20389;-77
2020/12/03 04:09:45;;;;;;;11.30;6.35;;;8.70;79.70;;;;;;4996727;28;20164;-78
2020/12/03 04:12:11;;;;;;;9.43;5.97;;;8.70;79.70;;;;;;4995364;28;20099;-76
2020/12/03 04:14:36;;;;;;;9.60;6.13;;;8.70;79.70;;;;;;5011854;28;20097;-75
2020/12/03 04:17:02;;;;;;;9.25;6.53;;;8.70;79.70;;;;;;5012261;28;20030;-83
2020/12/03 04:19:28;;;;;;;9.07;5.90;;;8.70;79.70;;;;;;4995981;28;20066;-80
2020/12/03 04:21:54;;;;;;;8.95;5.75;;;8.70;79.80;;;;;;4980132;28;20409;-76
2020/12/03 04:24:20;;;;;;;10.63;6.55;;;8.70;79.70;;;;;;5012612;28;20034;-76
2020/12/03 04:26:46;;;;;;;10.32;6.35;;;8.70;79.70;;;;;;5012598;28;20030;-75
2020/12/03 04:29:14;;;;;;;8.73;5.82;;;8.70;79.80;;;;;;5004064;28;20104;-75
2020/12/03 04:31:44;;;;;;;10.05;6.43;;;8.70;79.70;;;;;;5028762;28;20544;-76
2020/12/03 04:34:11;;;;;;;9.85;6.40;;;8.70;79.80;;;;;;4976652;28;20081;-75
2020/12/03 04:36:37;;;;;;;9.25;6.03;;;8.70;79.80;;;;;;5011819;28;20022;-76
2020/12/03 04:39:05;;;;;;;9.18;5.80;;;8.70;79.80;;;;;;5011974;28;20034;-80
2020/12/03 04:41:31;;;;;;;8.93;6.03;;;8.70;79.80;;;;;;4979542;28;20080;-76
2020/12/03 04:44:06;;;;;;;9.13;6.35;;;8.70;79.80;;;;;;5028701;28;20022;-76
2020/12/03 04:46:56;;;;;;;9.73;6.20;;;8.70;79.80;;;;;;5012513;28;20026;-76
2020/12/03 04:49:51;;;;;;;9.25;5.80;;;8.70;79.80;;;;;;5010988;28;20034;-76
2020/12/03 04:52:54;;;;;;;9.70;6.13;;;8.70;79.80;;;;;;4997608;28;20046;-76
2020/12/03 04:55:40;;;;;;;8.55;5.32;;;8.70;79.80;;;;;;5010310;28;20045;-76
2020/12/03 04:58:24;;;;;;;;;;;8.60;79.70;;;;;;5011873;28;20469;-75
2020/12/03 05:00:58;;;;;;;7.00;4.97;;;8.70;79.70;;;;;;5013359;28;19956;-75
2020/12/03 05:03:42;;;;;;;9.65;5.82;;;8.60;79.60;;;;;;5011457;28;20068;-75
2020/12/03 05:06:26;;;;;;;8.52;5.68;;;8.60;79.70;;;;;;5028598;28;20469;-80
2020/12/03 05:09:06;;;;;;;8.57;5.68;;;8.60;79.80;;;;;;5014391;28;20072;-76
2020/12/03 05:11:45;;;;;;;9.18;5.65;;;8.60;79.80;;;;;;5011944;28;20021;-76
2020/12/03 05:14:35;;;;;;;9.32;5.80;;;8.60;79.80;;;;;;5013139;28;20030;-77
2020/12/03 05:17:15;;;;;;;8.88;5.70;;;8.60;79.90;;;;;;5011903;28;20149;-75
2020/12/03 05:20:20;;;;;;;8.88;5.43;;;8.60;79.80;;;;;;5012713;28;20030;-76
2020/12/03 05:22:55;;;;;;;9.80;5.80;;;8.60;79.80;;;;;;5009842;28;20029;-75
2020/12/03 05:25:23;;;;;;;9.45;5.78;;;8.60;79.80;;;;;;5012888;28;20032;-76
2020/12/03 05:27:52;;;;;;;10.25;5.82;;;8.60;79.80;;;;;;5011521;28;20022;-77
2020/12/03 05:30:18;;;;;;;9.20;5.97;;;8.60;79.80;;;;;;5015843;28;20026;-76
2020/12/03 05:32:46;;;;;;;8.57;5.43;;;8.60;79.80;;;;;;5003362;28;20407;-75
2020/12/03 05:35:11;;;;;;;8.25;5.47;;;8.60;79.80;;;;;;5024366;28;20037;-76
2020/12/03 05:37:39;;;;;;;7.93;5.47;;;8.60;79.80;;;;;;5015538;28;20409;-76
2020/12/03 05:40:14;;;;;;;8.27;5.22;;;8.70;79.90;;;;;;5011362;28;20049;-80
2020/12/03 05:42:41;;;;;;;8.73;5.70;;;8.70;79.90;;;;;;4996597;28;20586;-76
2020/12/03 05:45:17;;;;;;;9.13;5.75;;;8.70;79.90;;;;;;5027801;28;20026;-76
2020/12/03 05:47:44;;;;;;;9.00;6.00;;;8.60;79.80;;;;;;5011586;28;20033;-75
2020/12/03 05:50:29;;;;;;;9.65;6.38;;;8.70;79.80;;;;;;4994636;28;20469;-76
2020/12/03 05:53:08;;;;;;;8.52;5.97;;;8.70;79.90;;;;;;5012277;28;20116;-76
2020/12/03 05:55:34;;;;;;;9.85;5.55;;;8.70;79.80;;;;;;5007165;28;20050;-76
2020/12/03 05:58:32;;;;;;;7.85;5.60;;;8.70;79.80;;;;;;4993120;28;20097;-79
2020/12/03 06:01:24;;;;;;;9.43;6.07;;;8.70;79.80;;;;;;5012933;28;20026;-75
2020/12/03 06:04:32;;;;;;;8.85;5.70;;;8.70;79.80;;;;;;4994529;28;20045;-77
2020/12/03 06:07:08;;;;;;;9.32;5.85;;;8.70;79.80;;;;;;4984512;28;20090;-76
2020/12/03 06:09:48;;;;;;;8.00;5.45;;;8.60;79.80;;;;;;4993418;28;20089;-80
2020/12/03 06:12:35;;;;;;;8.98;6.00;;;8.70;79.80;;;;;;4994733;28;20054;-80
2020/12/03 06:15:17;;;;;;;7.95;5.28;;;8.70;79.90;;;;;;5010234;28;20054;-75
2020/12/03 06:18:02;;;;;;;8.15;5.50;;;8.70;79.80;;;;;;4991992;28;20030;-76
2020/12/03 06:21:11;;;;;;;9.40;5.65;;;8.70;79.90;;;;;;5030674;28;20040;-75
2020/12/03 06:24:08;;;;;;;8.10;5.22;;;8.70;79.90;;;;;;5014824;28;20359;-78
2020/12/03 06:27:05;;;;;;;8.05;5.05;;;8.70;79.80;;;;;;5008996;28;20425;-75
2020/12/03 06:29:48;;;;;;;8.25;5.63;;;8.70;79.80;;;;;;4998916;28;20053;-76
2020/12/03 06:32:25;;;;;;;7.00;5.15;;;8.70;79.80;;;;;;5011742;28;20407;-76
2020/12/03 06:35:18;;;;;;;8.25;5.35;;;8.70;79.80;;;;;;5014069;28;20037;-76
2020/12/03 06:38:09;;;;;;;7.93;5.20;;;8.70;79.90;;;;;;5012306;28;20179;-75
2020/12/03 06:40:40;;;;;;;6.85;5.00;;;8.70;79.90;;;;;;5014394;28;20014;-76
2020/12/03 06:43:22;;;;;;;9.10;5.35;;;8.70;79.90;;;;;;5030898;28;20037;-77
2020/12/03 06:46:41;;;;;;;7.97;4.95;;;8.70;80.00;;;;;;5022385;28;20088;-75
2020/12/03 06:49:35;;;;;;;7.45;4.95;;;8.70;80.00;;;;;;5014224;28;20064;-78
2020/12/03 06:52:23;;;;;;;8.15;5.30;;;8.70;79.90;;;;;;4998083;28;20112;-75
2020/12/03 06:55:07;;;;;;;8.82;5.38;;;8.70;79.90;;;;;;5018972;28;20065;-75
2020/12/03 06:58:09;;;;;;;7.38;5.18;;;8.70;79.90;;;;;;5008555;28;20030;-75
2020/12/03 07:01:26;;;;;;;7.88;5.05;;;8.60;79.90;;;;;;4997717;28;20121;-75
2020/12/03 07:04:19;;;;;;;8.40;5.22;;;8.70;79.90;;;;;;5031111;28;20029;-76
2020/12/03 07:07:20;;;;;;;6.93;4.32;;;8.70;79.90;;;;;;5008443;28;20125;-75
2020/12/03 07:10:33;;;;;;;8.02;4.75;;;8.70;79.90;;;;;;5014609;28;20046;-76
2020/12/03 07:13:21;;;;;;;7.13;4.55;;;8.70;80.00;;;;;;4998911;28;20050;-76
2020/12/03 07:16:31;;;;;;;6.53;4.60;;;8.70;79.90;;;;;;5038511;28;20119;-77
2020/12/03 07:19:18;;;;;;;6.25;4.20;;;8.70;80.00;;;;;;5014824;28;20523;-75
2020/12/03 07:22:04;;;;;;;6.50;4.70;;;8.70;79.90;;;;;;5006462;28;20096;-75
2020/12/03 07:24:32;;;;;;;6.72;4.68;;;8.70;80.30;;;;;;5022303;28;20034;-76
2020/12/03 07:27:22;;;;;;;6.28;4.28;;;8.70;79.90;;;;;;5013979;28;20481;-75
2020/12/03 07:30:06;;;;;;;6.20;4.40;;;8.70;80.00;;;;;;5013601;28;20034;-75
2020/12/03 07:32:52;;;;;;;7.00;4.65;;;8.70;80.00;;;;;;5012816;28;20033;-76
2020/12/03 07:35:18;;;;;;;;;;;8.70;79.90;;;;;;5019118;28;20491;-76
2020/12/03 07:37:46;;;;;;;5.63;4.03;;;8.70;79.80;;;;;;5013379;28;20004;-77
2020/12/03 07:40:18;;;;;;;6.70;4.47;;;8.70;79.80;;;;;;5010133;28;20026;-76
2020/12/03 07:42:45;;;;;;;5.68;3.90;;;8.70;79.90;;;;;;5029677;28;20041;-75
2020/12/03 07:45:33;;;;;;;5.85;4.05;;;8.70;79.90;;;;;;4996088;28;20033;-75
2020/12/03 07:48:31;;;;;;;6.75;4.28;;;8.70;80.00;;;;;;5013211;28;20385;-75
2020/12/03 07:51:17;;;;;;;6.72;4.47;;;8.70;80.00;;;;;;5004530;28;20053;-75
2020/12/03 07:53:43;;;;;;;6.55;4.60;;;8.70;80.00;;;;;;5011146;28;20477;-75
2020/12/03 07:56:30;;;;;;;7.13;4.47;;;8.70;79.90;;;;;;5012090;28;20125;-79
2020/12/03 07:59:22;;;;;;;6.68;4.45;;;8.70;80.00;;;;;;5012663;28;20378;-75
2020/12/03 08:01:48;;;;;;;6.60;4.30;;;8.70;80.00;;;;;;5020790;28;20036;-75
2020/12/03 08:04:13;;;;;;;7.35;4.70;;;8.70;79.90;;;;;;5012416;28;20124;-76
2020/12/03 08:06:43;;;;;;;6.30;4.68;;;8.70;79.90;;;;;;4996013;28;20036;-75
2020/12/03 08:09:22;;;;;;;6.28;4.43;;;8.70;79.90;;;;;;5012454;28;20083;-75
2020/12/03 08:11:57;;;;;;;6.55;4.35;;;8.70;80.00;;;;;;5013740;28;20508;-75
2020/12/03 08:14:35;;;;;;;7.70;4.57;;;8.70;80.00;;;;;;5028671;28;20041;-75
2020/12/03 08:17:03;;;;;;;6.18;4.38;;;8.70;80.00;;;;;;5012840;28;20514;-76
2020/12/03 08:19:31;;;;;;;6.55;4.47;;;8.70;80.00;;;;;;5012770;28;20112;-75
2020/12/03 08:21:57;;;;;;;6.90;4.60;;;8.70;80.00;;;;;;5023105;28;20474;-75
2020/12/03 08:24:29;;;;;;;7.63;4.90;;;8.70;80.00;;;;;;5012145;28;20022;-75
2020/12/03 08:27:04;;;;;;;6.70;4.57;;;8.70;80.00;;;;;;5027639;28;20026;-75
2020/12/03 08:29:44;;;;;;;7.75;5.22;;;8.70;80.00;;;;;;5011807;28;20022;-77
2020/12/03 08:32:09;;;;;;;6.53;4.45;;;8.70;80.00;;;;;;5007259;28;20038;-76
2020/12/03 08:34:37;;;;;;;7.50;4.53;;;8.80;80.60;;;;;;5011533;28;20084;-78
2020/12/03 08:37:03;;;;;;;7.30;5.18;;;8.80;80.00;;;;;;5012661;28;20109;-75
2020/12/03 08:39:33;;;;;;;8.40;4.93;;;8.80;80.00;;;;;;5023906;28;20504;-75
2020/12/03 08:42:00;;;;;;;6.65;4.22;;;8.80;80.00;;;;;;4995908;28;20056;-77
2020/12/03 08:44:28;;;;;;;7.15;4.55;;;8.70;79.90;;;;;;4993671;28;20042;-86
2020/12/03 08:46:57;;;;;;;6.50;4.60;;;8.80;80.00;;;;;;5021256;28;20060;-76
2020/12/03 08:49:24;;;;;;;6.70;4.72;;;8.80;80.00;;;;;;5014629;28;20386;-76
2020/12/03 08:51:51;;;;;;;6.72;4.78;;;8.80;80.00;;;;;;5010513;28;20188;-76
2020/12/03 08:54:28;;;;;;;7.05;4.95;;;8.70;79.90;;;;;;5009515;28;20193;-77
2020/12/03 08:57:10;;;;;;;6.63;4.60;;;8.80;80.00;;;;;;4994034;28;20145;-76
2020/12/03 08:59:52;;;;;;;7.25;4.80;;;8.80;80.00;;;;;;5010953;28;20073;-76
2020/12/03 09:02:20;;;;;;;7.10;4.63;;;8.80;80.60;;;;;;5011019;28;20026;-76
2020/12/03 09:04:59;;;;;;;6.68;4.70;;;8.80;79.90;;;;;;5013026;28;20056;-76
2020/12/03 09:07:29;;;;;;;6.63;4.63;;;8.80;80.00;;;;;;4980815;28;20394;-76
2020/12/03 09:09:58;;;;;;;7.57;4.97;;;8.80;79.90;;;;;;5011142;28;20022;-75
2020/12/03 09:12:28;;;;;;;5.93;4.28;;;8.80;80.00;;;;;;5011060;28;20088;-79
2020/12/03 09:14:59;;;;;;;5.75;4.15;;;8.80;79.90;;;;;;5010662;28;20067;-76
2020/12/03 09:17:28;;;;;;;7.38;4.03;;;8.80;79.90;;;;;;5010626;28;20121;-75
2020/12/03 09:19:54;;;;;;;6.78;4.50;;;8.80;79.90;;;;;;5010078;28;20034;-76
2020/12/03 09:22:23;;;;;;;6.78;4.60;;;8.80;79.90;;;;;;5010230;28;20029;-77
2020/12/03 09:24:49;;;;;;;7.20;4.80;;;8.80;79.90;;;;;;5023508;28;20080;-77
2020/12/03 09:27:16;;;;;;;6.43;4.38;;;8.80;79.90;;;;;;5010078;28;20022;-76
2020/12/03 09:29:50;;;;;;;6.68;4.45;;;8.80;79.90;;;;;;4994641;28;20030;-75
2020/12/03 09:32:19;;;;;;;6.77;4.30;;;8.80;80.00;;;;;;5010338;28;20033;-76
2020/12/03 09:34:48;;;;;;;6.60;4.65;;;8.80;79.90;;;;;;5011188;28;20026;-76
2020/12/03 09:37:15;;;;;;;6.70;4.70;;;8.80;79.90;;;;;;5012704;28;20044;-76
2020/12/03 09:39:41;;;;;;;6.85;4.43;;;8.80;79.90;;;;;;5011138;28;20117;-75
2020/12/03 09:42:13;;;;;;;6.78;4.50;;;8.80;79.90;;;;;;5010481;28;20053;-75
2020/12/03 09:44:41;;;;;;;6.18;4.03;;;8.80;80.00;;;;;;4994137;28;20493;-75
2020/12/03 09:47:14;;;;;;;6.47;4.38;;;8.80;79.90;;;;;;5010414;28;20030;-76
2020/12/03 09:49:45;;;;;;;6.82;4.40;;;8.80;80.00;;;;;;5026974;28;20036;-75
2020/12/03 09:52:15;;;;;;;6.35;4.60;;;8.80;79.90;;;;;;5010048;28;20076;-75
2020/12/03 09:54:42;;;;;;;7.53;4.43;;;8.80;79.90;;;;;;5010553;28;20484;-76
2020/12/03 09:57:09;;;;;;;6.30;4.90;;;8.80;79.90;;;;;;4994317;28;20046;-76
2020/12/03 09:59:37;;;;;;;8.55;4.43;;;8.80;79.90;;;;;;5010262;28;20487;-76
2020/12/03 10:02:27;;;;;;;7.90;4.72;;;8.80;80.50;;;;;;5011917;28;20466;-81
2020/12/03 10:05:08;;;;;;;6.63;4.65;;;8.80;79.90;;;;;;5011512;28;20110;-76
2020/12/03 10:08:01;;;;;;;6.63;4.40;;;8.80;79.90;;;;;;5019993;28;20629;-75
2020/12/03 10:11:04;;;;;;;6.85;4.20;;;8.80;79.90;;;;;;5020553;28;20029;-77
2020/12/03 10:13:52;;;;;;;6.57;4.30;;;8.80;79.90;;;;;;5003093;28;20034;-76
2020/12/03 10:16:23;;;;;;;6.90;4.40;;;8.80;79.90;;;;;;5009345;28;20037;-77
2020/12/03 10:18:54;;;;;;;7.03;4.70;;;8.80;79.90;;;;;;5019175;28;20041;-78
2020/12/03 10:21:28;;;;;;;6.57;4.57;;;8.80;79.90;;;;;;5010678;28;20095;-77
2020/12/03 10:24:11;;;;;;;7.43;4.80;;;8.80;79.90;;;;;;5016540;28;20037;-77
2020/12/03 10:26:56;;;;;;;6.65;4.00;;;8.80;80.60;;;;;;5009921;28;20160;-76
2020/12/03 10:29:30;;;;;;;7.35;4.70;;;8.80;79.90;;;;;;5010024;28;20037;-76
2020/12/03 10:31:58;;;;;;;6.93;4.50;;;8.80;79.90;;;;;;5010796;28;20042;-76
2020/12/03 10:34:25;;;;;;;7.18;4.60;;;8.80;79.90;;;;;;5026900;28;20026;-77
2020/12/03 10:36:58;;;;;;;7.78;5.03;;;8.80;79.90;;;;;;5025523;28;20108;-77
2020/12/03 10:39:44;;;;;;;6.55;4.35;;;8.80;79.90;;;;;;5011475;28;20026;-76
2020/12/03 10:42:12;;;;;;;7.07;4.20;;;8.80;80.00;;;;;;5010382;28;20092;-78
2020/12/03 10:44:41;;;;;;;7.18;4.53;;;8.80;79.90;;;;;;5010133;28;20117;-76
2020/12/03 10:47:12;;;;;;;7.05;4.45;;;8.90;80.00;;;;;;5013151;28;20427;-77
2020/12/03 10:49:41;;;;;;;6.78;4.60;;;8.90;80.00;;;;;;5012423;28;20432;-78
2020/12/03 10:52:10;;;;;;;7.82;4.55;;;8.80;79.90;;;;;;4997976;28;20465;-76
2020/12/03 10:54:36;;;;;;;7.40;4.80;;;8.90;79.90;;;;;;5005543;28;20465;-76
2020/12/03 10:57:21;;;;;;;7.07;4.93;;;8.80;79.90;;;;;;5014605;28;20142;-76
2020/12/03 10:59:47;;;;;;;7.25;4.70;;;8.90;80.00;;;;;;4996606;28;20291;-77
2020/12/03 11:02:21;;;;;;;7.38;4.72;;;8.90;79.90;;;;;;5022155;28;20061;-80
2020/12/03 11:04:48;;;;;;;6.47;4.50;;;8.90;79.90;;;;;;5008006;28;20030;-76
2020/12/03 11:07:13;;;;;;;7.57;4.82;;;8.80;79.90;;;;;;5002665;28;20470;-77
2020/12/03 11:09:42;;;;;;;6.70;4.82;;;8.80;79.90;;;;;;5013146;28;20022;-78
2020/12/03 11:12:10;;;;;;;7.40;4.97;;;8.80;79.90;;;;;;5017398;28;20041;-76
2020/12/03 11:14:36;;;;;;;6.53;4.60;;;8.80;79.90;;;;;;5013094;28;20026;-77
2020/12/03 11:17:22;;;;;;;8.95;4.90;;;8.90;80.00;;;;;;5013705;28;20462;-77
2020/12/03 11:19:51;;;;;;;7.13;4.45;;;8.90;80.00;;;;;;5013259;28;20390;-77
2020/12/03 11:22:43;;;;;;;7.68;4.93;;;8.90;79.90;;;;;;5011735;28;20543;-78
2020/12/03 11:25:17;;;;;;;6.53;5.07;;;8.90;79.90;;;;;;5022851;28;20467;-77
2020/12/03 11:27:43;;;;;;;8.25;5.15;;;8.90;79.90;;;;;;5017315;28;20038;-77
2020/12/03 11:30:19;;;;;;;7.80;4.63;;;8.80;79.90;;;;;;5015303;28;20037;-76
2020/12/03 11:32:50;;;;;;;7.07;4.88;;;8.90;80.00;;;;;;5012469;28;20061;-76
2020/12/03 11:35:27;;;;;;;7.50;5.07;;;8.90;79.90;;;;;;5012912;28;20040;-75
2020/12/03 11:37:55;;;;;;;6.78;4.63;;;8.90;80.00;;;;;;5013527;28;20481;-75
2020/12/03 11:40:42;;;;;;;7.05;4.70;;;8.90;79.90;;;;;;4996153;28;20381;-76
2020/12/03 11:48:59;;;;;;;8.95;4.97;;;8.90;79.90;;;;;;5011856;28;20038;-76
2020/12/03 11:51:32;;;;;;;8.45;5.05;;;8.90;79.90;;;;;;5011176;28;20489;-76
2020/12/03 11:54:00;;;;;;;7.47;5.05;;;8.90;79.90;;;;;;5011604;28;20044;-76
2020/12/03 11:56:28;;;;;;;6.97;4.88;;;8.90;79.90;;;;;;4994565;28;20454;-77
2020/12/03 11:59:20;;;;;;;7.10;5.05;;;8.90;80.00;;;;;;5012041;28;20057;-76
2020/12/03 12:01:53;;;;;;;7.53;5.10;;;8.90;80.00;;;;;;5011463;28;20465;-76
2020/12/03 12:04:25;;;;;;;8.13;5.10;;;8.90;80.00;;;;;;5012387;28;20141;-84
2020/12/03 12:07:16;;;;;;;8.75;4.90;;;8.90;79.90;;;;;;5008705;28;20096;-75
2020/12/03 12:12:08;;;;;;;6.97;4.60;;;8.90;79.90;;;;;;5007904;28;20070;-75
2020/12/03 12:14:34;;;;;;;7.93;4.85;;;8.90;79.90;;;;;;5004145;28;20065;-76
2020/12/03 12:17:00;;;;;;;6.80;5.00;;;8.90;79.90;;;;;;5009332;28;20033;-76
2020/12/03 12:19:28;;;;;;;7.35;5.03;;;8.90;80.00;;;;;;5010557;28;20435;-75
2020/12/03 12:21:55;;;;;;;7.07;4.85;;;8.90;80.00;;;;;;5012154;28;20037;-77
2020/12/03 12:24:21;;;;;;;7.18;4.78;;;8.90;80.00;;;;;;5006061;28;20385;-81
2020/12/03 12:26:48;;;;;;;7.47;5.18;;;8.90;79.90;;;;;;5012051;28;20041;-77
2020/12/03 12:29:14;;;;;;;7.28;5.03;;;8.90;79.90;;;;;;5008354;28;20037;-76
2020/12/03 12:31:40;;;;;;;7.57;5.38;;;8.90;79.90;;;;;;5013985;28;20045;-76
2020/12/03 12:34:07;;;;;;;7.63;4.88;;;8.90;79.90;;;;;;5011940;28;20025;-76
2020/12/03 12:36:33;;;;;;;7.32;4.88;;;8.90;79.90;;;;;;4993838;28;20026;-76
2020/12/03 12:38:59;;;;;;;6.68;4.63;;;8.90;79.90;;;;;;5011828;28;20385;-76
2020/12/03 12:41:25;;;;;;;6.72;4.60;;;9.00;79.90;;;;;;5028239;28;20425;-78
2020/12/03 12:43:50;;;;;;;7.53;4.75;;;8.90;79.90;;;;;;4994932;28;20026;-77
2020/12/03 12:46:20;;;;;;;7.68;4.95;;;8.90;79.90;;;;;;5011673;28;20037;-76
2020/12/03 12:48:46;;;;;;;5.88;4.40;;;9.00;79.90;;;;;;5013675;28;20034;-77
2020/12/03 12:51:12;;;;;;;6.65;4.50;;;9.00;79.90;;;;;;5012696;28;20401;-75
2020/12/03 12:53:39;;;;;;;6.13;3.72;;;9.00;80.50;;;;;;4982034;28;20038;-77
2020/12/03 12:56:04;;;;;;;7.18;4.43;;;9.00;79.90;;;;;;4984373;28;20081;-80
2020/12/03 12:58:30;;;;;;;7.13;4.85;;;8.90;79.90;;;;;;4981137;28;20026;-75
2020/12/03 13:00:56;;;;;;;5.65;4.18;;;9.00;79.90;;;;;;5012960;28;20034;-76
2020/12/03 13:03:22;;;;;;;6.85;4.68;;;9.00;79.90;;;;;;4994733;28;20382;-80
2020/12/03 13:05:47;;;;;;;6.43;4.78;;;9.00;79.90;;;;;;4995350;28;20117;-76
2020/12/03 13:08:13;;;;;;;6.72;4.53;;;9.00;79.90;;;;;;5011151;28;20068;-76
2020/12/03 13:10:39;;;;;;;6.45;4.32;;;9.00;79.90;;;;;;5011928;28;20462;-76
2020/12/03 13:13:05;;;;;;;5.90;4.50;;;9.00;79.90;;;;;;5012808;28;20038;-75
2020/12/03 13:15:30;;;;;;;6.22;4.30;;;9.00;79.90;;;;;;5001872;28;20482;-76
2020/12/03 13:17:56;;;;;;;7.00;4.40;;;9.00;79.90;;;;;;4995734;28;20124;-75
2020/12/03 13:20:22;;;;;;;7.25;4.30;;;9.00;79.90;;;;;;5004976;28;20029;-79
2020/12/03 13:22:47;;;;;;;5.68;4.18;;;9.00;79.90;;;;;;4995510;28;20470;-76
2020/12/03 13:25:13;;;;;;;6.80;4.20;;;9.00;80.00;;;;;;5010620;28;20390;-76
2020/12/03 13:27:39;;;;;;;6.28;4.13;;;9.00;79.90;;;;;;4992273;28;20506;-75
2020/12/03 13:30:05;;;;;;;5.47;3.72;;;9.00;79.90;;;;;;5011631;28;20034;-75
2020/12/03 13:32:31;;;;;;;6.35;4.55;;;9.00;79.90;;;;;;5009771;28;20038;-76
2020/12/03 13:34:57;;;;;;;5.93;3.83;;;9.00;79.90;;;;;;5011034;28;20477;-78